createdAt,value
2023-05-05T00:00:10.496Z,1010.14
2023-05-05T00:01:10.500Z,1010.06
2023-05-05T00:02:10.529Z,1010.03
2023-05-05T00:03:10.536Z,1010.00
2023-05-05T00:04:10.526Z,1009.99
2023-05-05T00:05:10.491Z,1010.00
2023-05-05T00:06:10.491Z,1010.02
2023-05-05T00:07:10.489Z,1010.05
2023-05-05T00:08:10.488Z,1010.10
2023-05-05T00:09:10.489Z,1010.08
2023-05-05T00:10:10.537Z,1010.04
2023-05-05T00:11:10.482Z,1010.00
2023-05-05T00:12:10.712Z,1009.97
2023-05-05T00:13:10.580Z,1009.92
2023-05-05T00:14:10.476Z,1009.94
2023-05-05T00:15:10.475Z,1009.96
2023-05-05T00:16:10.475Z,1009.99
2023-05-05T00:17:10.533Z,1010.02
2023-05-05T00:18:10.468Z,1010.01
2023-05-05T00:19:10.470Z,1010.03
2023-05-05T00:20:10.595Z,1010.01
2023-05-05T00:21:10.476Z,1010.01
2023-05-05T00:22:10.470Z,1010.01
2023-05-05T00:23:10.490Z,1010.00
2023-05-05T00:24:10.462Z,1009.99
2023-05-05T00:25:10.468Z,1009.90
2023-05-05T00:26:10.465Z,1009.87
2023-05-05T00:27:10.457Z,1009.88
2023-05-05T00:28:10.470Z,1009.87
2023-05-05T00:29:10.457Z,1009.89
2023-05-05T00:30:10.510Z,1009.89
2023-05-05T00:31:10.538Z,1009.90
2023-05-05T00:32:10.453Z,1009.95
2023-05-05T00:33:10.454Z,1009.96
2023-05-05T00:34:10.456Z,1009.92
2023-05-05T00:35:10.453Z,1009.95
2023-05-05T00:36:10.453Z,1009.95
2023-05-05T00:37:10.451Z,1009.95
2023-05-05T00:38:10.448Z,1009.98
2023-05-05T00:39:10.453Z,1009.97
2023-05-05T00:40:10.548Z,1009.94
2023-05-05T00:41:10.445Z,1009.93
2023-05-05T00:42:10.445Z,1009.96
2023-05-05T00:43:10.438Z,1009.94
2023-05-05T00:44:10.459Z,1009.90
2023-05-05T00:45:10.439Z,1009.96
2023-05-05T00:46:10.461Z,1009.98
2023-05-05T00:47:10.452Z,1009.99
2023-05-05T00:48:10.487Z,1010.00
2023-05-05T00:49:10.498Z,1010.00
2023-05-05T00:50:10.436Z,1010.03
2023-05-05T00:51:10.432Z,1010.03
2023-05-05T00:52:10.458Z,1010.04
2023-05-05T00:53:10.429Z,1010.07
2023-05-05T00:54:10.433Z,1010.06
2023-05-05T00:55:10.428Z,1010.05
2023-05-05T00:56:10.421Z,1010.05
2023-05-05T00:57:10.422Z,1010.00
2023-05-05T00:58:10.421Z,1009.98
2023-05-05T00:59:10.419Z,1010.01
2023-05-05T01:00:10.595Z,1010.01
2023-05-05T01:01:10.467Z,1009.98
2023-05-05T01:02:10.414Z,1009.98
2023-05-05T01:03:10.510Z,1009.98
2023-05-05T01:04:10.410Z,1009.94
2023-05-05T01:05:10.408Z,1009.94
2023-05-05T01:06:10.413Z,1009.87
2023-05-05T01:07:10.404Z,1009.85
2023-05-05T01:08:10.404Z,1009.84
2023-05-05T01:09:10.404Z,1009.82
2023-05-05T01:10:19.569Z,1009.84
2023-05-05T01:11:10.402Z,1009.90
2023-05-05T01:12:10.592Z,1009.92
2023-05-05T01:13:10.469Z,1009.94
2023-05-05T01:14:10.394Z,1009.94
2023-05-05T01:15:10.389Z,1009.96
2023-05-05T01:16:10.450Z,1009.98
2023-05-05T01:17:10.402Z,1009.99
2023-05-05T01:18:10.385Z,1009.98
2023-05-05T01:19:10.389Z,1010.00
2023-05-05T01:20:10.527Z,1010.02
2023-05-05T01:21:10.385Z,1010.05
2023-05-05T01:22:10.385Z,1010.08
2023-05-05T01:23:10.381Z,1010.07
2023-05-05T01:24:10.370Z,1010.07
2023-05-05T01:25:10.384Z,1010.10
2023-05-05T01:26:10.368Z,1010.10
2023-05-05T01:27:10.370Z,1010.14
2023-05-05T01:28:10.368Z,1010.13
2023-05-05T01:29:10.364Z,1010.11
2023-05-05T01:30:10.512Z,1010.14
2023-05-05T01:31:10.388Z,1010.12
2023-05-05T01:32:10.378Z,1010.12
2023-05-05T01:33:10.366Z,1010.09
2023-05-05T01:34:10.356Z,1010.06
2023-05-05T01:35:10.354Z,1010.04
2023-05-05T01:36:10.358Z,1010.04
2023-05-05T01:37:10.368Z,1010.07
2023-05-05T01:38:10.356Z,1010.08
2023-05-05T01:39:10.460Z,1010.04
2023-05-05T01:40:10.350Z,1010.06
2023-05-05T01:41:10.343Z,1010.05
2023-05-05T01:42:10.337Z,1010.06
2023-05-05T01:43:10.339Z,1010.03
2023-05-05T01:44:10.336Z,1010.00
2023-05-05T01:45:10.335Z,1010.07
2023-05-05T01:46:10.373Z,1010.04
2023-05-05T01:47:10.329Z,1010.07
2023-05-05T01:48:10.345Z,1010.13
2023-05-05T01:49:10.336Z,1010.16
2023-05-05T01:50:10.472Z,1010.14
2023-05-05T01:51:10.325Z,1010.17
2023-05-05T01:52:10.319Z,1010.18
2023-05-05T01:53:10.318Z,1010.15
2023-05-05T01:54:10.343Z,1010.15
2023-05-05T01:55:10.311Z,1010.18
2023-05-05T01:56:10.311Z,1010.16
2023-05-05T01:57:10.312Z,1010.11
2023-05-05T01:58:10.311Z,1010.08
2023-05-05T01:59:10.308Z,1010.11
2023-05-05T02:00:10.510Z,1010.09
2023-05-05T02:01:10.349Z,1010.06
2023-05-05T02:02:10.342Z,1010.06
2023-05-05T02:03:10.399Z,1010.08
2023-05-05T02:04:10.321Z,1010.07
2023-05-05T02:05:10.293Z,1010.07
2023-05-05T02:06:10.300Z,1010.12
2023-05-05T02:07:10.293Z,1010.08
2023-05-05T02:08:10.288Z,1010.09
2023-05-05T02:09:10.291Z,1010.08
2023-05-05T02:10:10.452Z,1010.08
2023-05-05T02:11:10.281Z,1010.15
2023-05-05T02:12:10.287Z,1010.17
2023-05-05T02:13:10.381Z,1010.18
2023-05-05T02:14:10.296Z,1010.18
2023-05-05T02:15:10.276Z,1010.21
2023-05-05T02:16:10.280Z,1010.26
2023-05-05T02:17:10.476Z,1010.30
2023-05-05T02:18:10.271Z,1010.35
2023-05-05T02:19:10.283Z,1010.32
2023-05-05T02:20:10.373Z,1010.35
2023-05-05T02:21:10.263Z,1010.36
2023-05-05T02:22:10.265Z,1010.39
2023-05-05T02:23:10.268Z,1010.39
2023-05-05T02:24:10.280Z,1010.42
2023-05-05T02:25:10.259Z,1010.41
2023-05-05T02:26:10.260Z,1010.42
2023-05-05T02:27:10.252Z,1010.48
2023-05-05T02:28:10.252Z,1010.47
2023-05-05T02:29:10.251Z,1010.46
2023-05-05T02:30:10.446Z,1010.51
2023-05-05T02:31:10.300Z,1010.50
2023-05-05T02:32:10.245Z,1010.53
2023-05-05T02:33:10.257Z,1010.51
2023-05-05T02:34:10.239Z,1010.53
2023-05-05T02:35:10.235Z,1010.52
2023-05-05T02:36:10.264Z,1010.54
2023-05-05T02:37:10.231Z,1010.58
2023-05-05T02:38:10.235Z,1010.56
2023-05-05T02:39:10.228Z,1010.57
2023-05-05T02:40:10.541Z,1010.58
2023-05-05T02:41:10.230Z,1010.62
2023-05-05T02:42:10.245Z,1010.59
2023-05-05T02:43:10.274Z,1010.60
2023-05-05T02:44:10.219Z,1010.63
2023-05-05T02:45:10.215Z,1010.62
2023-05-05T02:46:10.248Z,1010.67
2023-05-05T02:47:10.214Z,1010.65
2023-05-05T02:48:10.208Z,1010.66
2023-05-05T02:49:10.209Z,1010.68
2023-05-05T02:50:10.513Z,1010.72
2023-05-05T02:51:10.210Z,1010.65
2023-05-05T02:52:10.221Z,1010.64
2023-05-05T02:53:10.193Z,1010.60
2023-05-05T02:54:10.193Z,1010.59
2023-05-05T02:55:10.191Z,1010.58
2023-05-05T02:56:10.192Z,1010.56
2023-05-05T02:57:10.201Z,1010.59
2023-05-05T02:58:10.188Z,1010.60
2023-05-05T02:59:10.209Z,1010.60
2023-05-05T03:00:10.318Z,1010.58
2023-05-05T03:01:10.191Z,1010.56
2023-05-05T03:02:10.191Z,1010.58
2023-05-05T03:03:10.334Z,1010.59
2023-05-05T03:04:10.190Z,1010.57
2023-05-05T03:05:10.176Z,1010.57
2023-05-05T03:06:10.171Z,1010.56
2023-05-05T03:07:10.182Z,1010.56
2023-05-05T03:08:10.183Z,1010.52
2023-05-05T03:09:10.159Z,1010.52
2023-05-05T03:10:10.304Z,1010.56
2023-05-05T03:11:10.158Z,1010.59
2023-05-05T03:12:10.155Z,1010.55
2023-05-05T03:13:10.191Z,1010.56
2023-05-05T03:14:10.154Z,1010.55
2023-05-05T03:15:10.161Z,1010.50
2023-05-05T03:16:10.193Z,1010.53
2023-05-05T03:17:10.491Z,1010.51
2023-05-05T03:18:10.136Z,1010.55
2023-05-05T03:19:10.134Z,1010.57
2023-05-05T03:20:10.161Z,1010.56
2023-05-05T03:21:10.137Z,1010.57
2023-05-05T03:22:10.127Z,1010.60
2023-05-05T03:23:10.129Z,1010.58
2023-05-05T03:24:10.152Z,1010.64
2023-05-05T03:25:10.122Z,1010.60
2023-05-05T03:26:10.119Z,1010.66
2023-05-05T03:27:10.121Z,1010.70
2023-05-05T03:28:10.122Z,1010.72
2023-05-05T03:29:10.117Z,1010.71
2023-05-05T03:30:10.281Z,1010.74
2023-05-05T03:31:10.106Z,1010.69
2023-05-05T03:32:10.115Z,1010.68
2023-05-05T03:33:10.126Z,1010.65
2023-05-05T03:34:10.107Z,1010.63
2023-05-05T03:35:10.092Z,1010.61
2023-05-05T03:36:10.100Z,1010.61
2023-05-05T03:37:10.090Z,1010.66
2023-05-05T03:38:10.117Z,1010.60
2023-05-05T03:39:10.086Z,1010.63
2023-05-05T03:40:10.241Z,1010.60
2023-05-05T03:41:10.087Z,1010.59
2023-05-05T03:42:10.096Z,1010.61
2023-05-05T03:43:10.085Z,1010.62
2023-05-05T03:44:10.079Z,1010.59
2023-05-05T03:45:10.076Z,1010.56
2023-05-05T03:46:10.158Z,1010.59
2023-05-05T03:47:10.067Z,1010.56
2023-05-05T03:48:10.129Z,1010.55
2023-05-05T03:49:10.063Z,1010.55
2023-05-05T03:50:10.164Z,1010.58
2023-05-05T03:51:10.065Z,1010.54
2023-05-05T03:52:10.061Z,1010.54
2023-05-05T03:53:10.053Z,1010.54
2023-05-05T03:54:10.051Z,1010.55
2023-05-05T03:55:10.050Z,1010.57
2023-05-05T03:56:10.070Z,1010.58
2023-05-05T03:57:10.064Z,1010.51
2023-05-05T03:58:10.050Z,1010.59
2023-05-05T03:59:10.056Z,1010.59
2023-05-05T04:00:10.082Z,1010.56
2023-05-05T04:01:10.047Z,1010.59
2023-05-05T04:02:10.066Z,1010.57
2023-05-05T04:03:10.301Z,1010.55
2023-05-05T04:04:10.069Z,1010.52
2023-05-05T04:05:10.036Z,1010.52
2023-05-05T04:06:10.054Z,1010.54
2023-05-05T04:07:10.026Z,1010.56
2023-05-05T04:08:10.035Z,1010.55
2023-05-05T04:09:10.032Z,1010.56
2023-05-05T04:10:10.165Z,1010.58
2023-05-05T04:11:10.014Z,1010.61
2023-05-05T04:12:10.032Z,1010.59
2023-05-05T04:13:10.074Z,1010.66
2023-05-05T04:14:10.008Z,1010.64
2023-05-05T04:15:10.007Z,1010.65
2023-05-05T04:16:10.034Z,1010.63
2023-05-05T04:17:10.006Z,1010.65
2023-05-05T04:18:10.087Z,1010.70
2023-05-05T04:19:10.010Z,1010.73
2023-05-05T04:20:10.298Z,1010.74
2023-05-05T04:21:09.991Z,1010.75
2023-05-05T04:22:10.241Z,1010.80
2023-05-05T04:23:09.985Z,1010.81
2023-05-05T04:24:09.997Z,1010.86
2023-05-05T04:25:09.988Z,1010.86
2023-05-05T04:26:10.007Z,1010.90
2023-05-05T04:27:09.976Z,1010.91
2023-05-05T04:28:10.008Z,1010.94
2023-05-05T04:29:09.978Z,1010.94
2023-05-05T04:30:10.105Z,1010.93
2023-05-05T04:31:09.973Z,1010.94
2023-05-05T04:32:09.977Z,1011.00
2023-05-05T04:33:09.962Z,1010.99
2023-05-05T04:34:09.974Z,1010.97
2023-05-05T04:35:09.957Z,1011.03
2023-05-05T04:36:09.958Z,1011.02
2023-05-05T04:37:09.956Z,1011.01
2023-05-05T04:38:09.949Z,1011.04
2023-05-05T04:39:09.958Z,1011.06
2023-05-05T04:40:10.194Z,1011.09
2023-05-05T04:41:09.947Z,1011.12
2023-05-05T04:42:09.940Z,1011.14
2023-05-05T04:43:09.944Z,1011.16
2023-05-05T04:44:09.950Z,1011.19
2023-05-05T04:45:09.933Z,1011.21
2023-05-05T04:46:09.979Z,1011.19
2023-05-05T04:47:11.409Z,1011.17
2023-05-05T04:48:09.949Z,1011.17
2023-05-05T04:49:09.927Z,1011.22
2023-05-05T04:50:10.141Z,1011.20
2023-05-05T04:51:09.915Z,1011.18
2023-05-05T04:52:09.915Z,1011.18
2023-05-05T04:53:09.913Z,1011.17
2023-05-05T04:54:09.909Z,1011.19
2023-05-05T04:55:09.902Z,1011.17
2023-05-05T04:56:09.905Z,1011.14
2023-05-05T04:57:09.912Z,1011.18
2023-05-05T04:58:09.916Z,1011.19
2023-05-05T04:59:09.912Z,1011.18
2023-05-05T05:00:10.151Z,1011.22
2023-05-05T05:01:09.912Z,1011.21
2023-05-05T05:02:09.994Z,1011.26
2023-05-05T05:03:09.981Z,1011.22
2023-05-05T05:04:09.889Z,1011.23
2023-05-05T05:05:09.886Z,1011.22
2023-05-05T05:06:09.885Z,1011.26
2023-05-05T05:07:09.893Z,1011.22
2023-05-05T05:08:09.878Z,1011.20
2023-05-05T05:09:09.887Z,1011.19
2023-05-05T05:10:10.004Z,1011.19
2023-05-05T05:11:09.893Z,1011.20
2023-05-05T05:12:09.892Z,1011.20
2023-05-05T05:13:12.375Z,1011.22
2023-05-05T05:14:09.866Z,1011.24
2023-05-05T05:15:09.863Z,1011.23
2023-05-05T05:16:09.961Z,1011.25
2023-05-05T05:17:09.855Z,1011.21
2023-05-05T05:18:09.854Z,1011.25
2023-05-05T05:19:09.851Z,1011.26
2023-05-05T05:20:10.290Z,1011.27
2023-05-05T05:21:09.849Z,1011.30
2023-05-05T05:22:09.861Z,1011.31
2023-05-05T05:23:09.849Z,1011.33
2023-05-05T05:24:09.847Z,1011.34
2023-05-05T05:25:09.845Z,1011.33
2023-05-05T05:26:09.836Z,1011.33
2023-05-05T05:27:10.397Z,1011.37
2023-05-05T05:28:10.926Z,1011.40
2023-05-05T05:29:09.830Z,1011.44
2023-05-05T05:30:10.055Z,1011.43
2023-05-05T05:31:09.824Z,1011.47
2023-05-05T05:32:09.863Z,1011.52
2023-05-05T05:33:09.855Z,1011.45
2023-05-05T05:34:12.618Z,1011.45
2023-05-05T05:35:09.819Z,1011.46
2023-05-05T05:36:09.829Z,1011.49
2023-05-05T05:37:09.816Z,1011.49
2023-05-05T05:38:09.808Z,1011.50
2023-05-05T05:39:09.808Z,1011.51
2023-05-05T05:40:10.010Z,1011.53
2023-05-05T05:41:09.801Z,1011.54
2023-05-05T05:42:09.804Z,1011.55
2023-05-05T05:43:09.796Z,1011.53
2023-05-05T05:44:09.801Z,1011.49
2023-05-05T05:45:09.796Z,1011.51
2023-05-05T05:46:09.866Z,1011.50
2023-05-05T05:47:09.790Z,1011.52
2023-05-05T05:48:09.883Z,1011.48
2023-05-05T05:49:09.782Z,1011.48
2023-05-05T05:50:09.999Z,1011.43
2023-05-05T05:51:09.797Z,1011.46
2023-05-05T05:52:09.781Z,1011.47
2023-05-05T05:53:09.773Z,1011.46
2023-05-05T05:54:09.774Z,1011.49
2023-05-05T05:55:09.785Z,1011.48
2023-05-05T05:56:09.798Z,1011.51
2023-05-05T05:57:09.771Z,1011.50
2023-05-05T05:58:09.763Z,1011.52
2023-05-05T05:59:09.764Z,1011.52
2023-05-05T06:00:10.043Z,1011.48
2023-05-05T06:01:09.774Z,1011.47
2023-05-05T06:02:09.821Z,1011.52
2023-05-05T06:03:09.968Z,1011.53
2023-05-05T06:04:09.807Z,1011.51
2023-05-05T06:05:09.748Z,1011.54
2023-05-05T06:06:09.745Z,1011.49
2023-05-05T06:07:09.745Z,1011.50
2023-05-05T06:08:09.740Z,1011.48
2023-05-05T06:09:09.740Z,1011.50
2023-05-05T06:10:25.681Z,1011.50
2023-05-05T06:11:09.739Z,1011.48
2023-05-05T06:12:09.738Z,1011.49
2023-05-05T06:13:09.811Z,1011.53
2023-05-05T06:14:09.730Z,1011.54
2023-05-05T06:15:09.725Z,1011.55
2023-05-05T06:16:09.750Z,1011.54
2023-05-05T06:17:09.722Z,1011.51
2023-05-05T06:18:09.768Z,1011.52
2023-05-05T06:19:09.745Z,1011.51
2023-05-05T06:20:09.907Z,1011.52
2023-05-05T06:21:09.714Z,1011.58
2023-05-05T06:22:09.723Z,1011.55
2023-05-05T06:23:09.727Z,1011.61
2023-05-05T06:24:09.705Z,1011.58
2023-05-05T06:25:09.709Z,1011.57
2023-05-05T06:26:09.704Z,1011.58
2023-05-05T06:27:10.111Z,1011.59
2023-05-05T06:28:09.696Z,1011.58
2023-05-05T06:29:11.768Z,1011.61
2023-05-05T06:30:09.893Z,1011.60
2023-05-05T06:31:09.741Z,1011.61
2023-05-05T06:32:09.697Z,1011.62
2023-05-05T06:33:09.758Z,1011.59
2023-05-05T06:34:09.685Z,1011.59
2023-05-05T06:35:09.700Z,1011.58
2023-05-05T06:36:09.735Z,1011.55
2023-05-05T06:37:09.693Z,1011.55
2023-05-05T06:38:09.699Z,1011.54
2023-05-05T06:39:09.688Z,1011.55
2023-05-05T06:40:09.805Z,1011.54
2023-05-05T06:41:09.678Z,1011.54
2023-05-05T06:42:09.673Z,1011.52
2023-05-05T06:43:09.679Z,1011.50
2023-05-05T06:44:09.683Z,1011.53
2023-05-05T06:45:09.678Z,1011.50
2023-05-05T06:46:09.664Z,1011.49
2023-05-05T06:47:09.668Z,1011.46
2023-05-05T06:48:09.674Z,1011.50
2023-05-05T06:49:09.663Z,1011.51
2023-05-05T06:50:09.899Z,1011.53
2023-05-05T06:51:09.664Z,1011.55
2023-05-05T06:52:09.724Z,1011.56
2023-05-05T06:53:09.664Z,1011.56
2023-05-05T06:54:09.659Z,1011.58
2023-05-05T06:55:09.661Z,1011.62
2023-05-05T06:56:09.656Z,1011.63
2023-05-05T06:57:09.654Z,1011.66
2023-05-05T06:58:09.646Z,1011.66
2023-05-05T06:59:09.651Z,1011.67
2023-05-05T07:00:09.809Z,1011.65
2023-05-05T07:01:09.692Z,1011.66
2023-05-05T07:02:09.666Z,1011.67
2023-05-05T07:03:09.703Z,1011.76
2023-05-05T07:04:09.720Z,1011.77
2023-05-05T07:05:09.657Z,1011.80
2023-05-05T07:06:09.640Z,1011.83
2023-05-05T07:07:09.645Z,1011.90
2023-05-05T07:08:09.736Z,1011.89
2023-05-05T07:09:09.634Z,1011.92
2023-05-05T07:10:09.947Z,1011.95
2023-05-05T07:11:09.631Z,1011.91
2023-05-05T07:12:09.631Z,1011.92
2023-05-05T07:13:09.722Z,1011.87
2023-05-05T07:14:09.633Z,1011.92
2023-05-05T07:15:26.011Z,1011.94
2023-05-05T07:16:09.650Z,1011.93
2023-05-05T07:17:09.626Z,1011.89
2023-05-05T07:18:09.658Z,1011.90
2023-05-05T07:19:09.628Z,1011.92
2023-05-05T07:20:10.032Z,1011.90
2023-05-05T07:21:09.617Z,1011.93
2023-05-05T07:22:09.616Z,1011.91
2023-05-05T07:23:09.626Z,1011.95
2023-05-05T07:24:09.636Z,1011.98
2023-05-05T07:25:09.625Z,1011.98
2023-05-05T07:26:09.612Z,1011.98
2023-05-05T07:27:09.619Z,1011.98
2023-05-05T07:28:09.609Z,1011.98
2023-05-05T07:29:09.611Z,1011.97
2023-05-05T07:30:13.186Z,1011.98
2023-05-05T07:31:09.624Z,1011.94
2023-05-05T07:32:10.096Z,1011.99
2023-05-05T07:33:09.618Z,1011.95
2023-05-05T07:34:09.598Z,1012.00
2023-05-05T07:35:09.604Z,1012.00
2023-05-05T07:36:09.600Z,1012.01
2023-05-05T07:37:09.599Z,1012.02
2023-05-05T07:38:10.933Z,1011.97
2023-05-05T07:39:09.593Z,1012.03
2023-05-05T07:40:10.122Z,1011.97
2023-05-05T07:41:09.593Z,1012.01
2023-05-05T07:42:09.587Z,1012.00
2023-05-05T07:43:09.586Z,1012.04
2023-05-05T07:44:09.582Z,1012.03
2023-05-05T07:45:09.594Z,1012.05
2023-05-05T07:46:09.676Z,1012.04
2023-05-05T07:47:09.581Z,1012.08
2023-05-05T07:48:09.658Z,1012.06
2023-05-05T07:49:09.586Z,1012.07
2023-05-05T07:50:10.015Z,1012.08
2023-05-05T07:51:09.576Z,1012.09
2023-05-05T07:52:09.576Z,1012.06
2023-05-05T07:53:14.401Z,1012.07
2023-05-05T07:54:09.571Z,1012.06
2023-05-05T07:55:09.576Z,1012.08
2023-05-05T07:56:09.661Z,1012.08
2023-05-05T07:57:09.574Z,1012.07
2023-05-05T07:58:09.571Z,1012.10
2023-05-05T07:59:09.567Z,1012.12
2023-05-05T08:00:09.975Z,1012.09
2023-05-05T08:01:09.567Z,1012.10
2023-05-05T08:02:09.580Z,1012.09
2023-05-05T08:03:11.615Z,1012.08
2023-05-05T08:04:09.649Z,1012.10
2023-05-05T08:05:09.949Z,1012.07
2023-05-05T08:06:09.567Z,1012.09
2023-05-05T08:07:09.564Z,1012.06
2023-05-05T08:08:09.564Z,1012.09
2023-05-05T08:09:09.569Z,1012.02
2023-05-05T08:10:09.563Z,1012.06
2023-05-05T08:11:09.566Z,1012.06
2023-05-05T08:12:09.662Z,1012.06
2023-05-05T08:13:09.591Z,1012.11
2023-05-05T08:14:09.555Z,1012.08
2023-05-05T08:15:09.864Z,1012.10
2023-05-05T08:16:09.623Z,1012.07
2023-05-05T08:17:09.558Z,1012.06
2023-05-05T08:18:09.557Z,1012.07
2023-05-05T08:19:21.232Z,1012.07
2023-05-05T08:20:09.551Z,1012.12
2023-05-05T08:21:09.562Z,1012.12
2023-05-05T08:22:09.554Z,1012.16
2023-05-05T08:23:09.556Z,1012.19
2023-05-05T08:24:09.554Z,1012.14
2023-05-05T08:25:09.722Z,1012.14
2023-05-05T08:26:09.554Z,1012.18
2023-05-05T08:27:09.552Z,1012.16
2023-05-05T08:28:09.676Z,1012.21
2023-05-05T08:29:09.565Z,1012.20
2023-05-05T08:30:09.558Z,1012.23
2023-05-05T08:31:09.564Z,1012.26
2023-05-05T08:32:10.002Z,1012.30
2023-05-05T08:33:09.619Z,1012.28
2023-05-05T08:34:09.554Z,1012.21
2023-05-05T08:35:09.823Z,1012.35
2023-05-05T08:36:09.554Z,1012.35
2023-05-05T08:37:09.553Z,1012.37
2023-05-05T08:38:09.558Z,1012.37
2023-05-05T08:39:09.557Z,1012.34
2023-05-05T08:40:09.556Z,1012.39
2023-05-05T08:41:09.558Z,1012.25
2023-05-05T08:42:09.555Z,1012.37
2023-05-05T08:43:09.560Z,1012.20
2023-05-05T08:44:09.660Z,1012.32
2023-05-05T08:45:10.276Z,1012.23
2023-05-05T08:46:09.565Z,1012.24
2023-05-05T08:47:09.582Z,1012.17
2023-05-05T08:48:09.648Z,1012.11
2023-05-05T08:49:09.562Z,1012.12
2023-05-05T08:50:09.570Z,1012.07
2023-05-05T08:51:09.564Z,1012.04
2023-05-05T08:52:09.586Z,1012.09
2023-05-05T08:53:09.573Z,1012.11
2023-05-05T08:54:09.558Z,1012.13
2023-05-05T08:55:09.653Z,1012.11
2023-05-05T08:56:09.563Z,1012.12
2023-05-05T08:57:09.561Z,1012.11
2023-05-05T08:58:09.560Z,1012.09
2023-05-05T08:59:09.563Z,1012.10
2023-05-05T09:00:09.669Z,1012.08
2023-05-05T09:01:09.621Z,1012.10
2023-05-05T09:02:09.596Z,1012.12
2023-05-05T09:03:09.659Z,1012.17
2023-05-05T09:04:09.568Z,1012.19
2023-05-05T09:05:09.925Z,1012.17
2023-05-05T09:06:09.563Z,1012.22
2023-05-05T09:07:09.562Z,1012.27
2023-05-05T09:08:09.563Z,1012.31
2023-05-05T09:09:09.562Z,1012.28
2023-05-05T09:10:09.561Z,1012.27
2023-05-05T09:11:09.566Z,1012.19
2023-05-05T09:12:09.563Z,1012.20
2023-05-05T09:13:09.597Z,1012.15
2023-05-05T09:14:09.561Z,1012.14
2023-05-05T09:15:09.835Z,1012.17
2023-05-05T09:16:09.657Z,1012.16
2023-05-05T09:17:09.651Z,1012.17
2023-05-05T09:18:09.658Z,1012.16
2023-05-05T09:19:09.570Z,1012.16
2023-05-05T09:20:09.576Z,1012.18
2023-05-05T09:21:09.567Z,1012.19
2023-05-05T09:22:09.571Z,1012.21
2023-05-05T09:23:09.567Z,1012.22
2023-05-05T09:24:09.804Z,1012.21
2023-05-05T09:25:09.743Z,1012.18
2023-05-05T09:26:09.571Z,1012.18
2023-05-05T09:27:09.559Z,1012.21
2023-05-05T09:28:09.568Z,1012.21
2023-05-05T09:29:09.562Z,1012.21
2023-05-05T09:30:09.560Z,1012.21
2023-05-05T09:31:09.579Z,1012.20
2023-05-05T09:32:09.653Z,1012.19
2023-05-05T09:33:09.636Z,1012.25
2023-05-05T09:34:09.559Z,1012.21
2023-05-05T09:35:09.718Z,1012.22
2023-05-05T09:36:09.559Z,1012.23
2023-05-05T09:37:09.567Z,1012.27
2023-05-05T09:38:09.559Z,1012.24
2023-05-05T09:39:09.563Z,1012.28
2023-05-05T09:40:09.555Z,1012.25
2023-05-05T09:41:09.563Z,1012.29
2023-05-05T09:42:09.556Z,1012.27
2023-05-05T09:43:09.562Z,1012.27
2023-05-05T09:44:09.556Z,1012.26
2023-05-05T09:45:09.750Z,1012.24
2023-05-05T09:46:09.603Z,1012.26
2023-05-05T09:47:18.471Z,1012.26
2023-05-05T09:48:09.719Z,1012.23
2023-05-05T09:49:09.557Z,1012.23
2023-05-05T09:50:09.683Z,1012.21
2023-05-05T09:51:09.556Z,1012.17
2023-05-05T09:52:09.554Z,1012.17
2023-05-05T09:53:09.554Z,1012.17
2023-05-05T09:54:09.553Z,1012.17
2023-05-05T09:55:09.556Z,1012.17
2023-05-05T09:56:09.557Z,1012.15
2023-05-05T09:57:09.552Z,1012.14
2023-05-05T09:58:09.607Z,1012.16
2023-05-05T09:59:09.556Z,1012.12
2023-05-05T10:00:09.771Z,1012.09
2023-05-05T10:01:09.580Z,1012.14
2023-05-05T10:02:09.556Z,1012.16
2023-05-05T10:03:09.620Z,1012.11
2023-05-05T10:04:09.706Z,1012.07
2023-05-05T10:05:09.614Z,1012.05
2023-05-05T10:06:09.567Z,1012.02
2023-05-05T10:07:09.549Z,1012.00
2023-05-05T10:08:09.546Z,1011.97
2023-05-05T10:09:09.545Z,1011.92
2023-05-05T10:10:09.884Z,1011.89
2023-05-05T10:11:09.547Z,1011.88
2023-05-05T10:12:09.543Z,1011.87
2023-05-05T10:13:09.628Z,1011.85
2023-05-05T10:14:09.548Z,1011.88
2023-05-05T10:15:09.584Z,1011.86
2023-05-05T10:16:09.631Z,1011.83
2023-05-05T10:17:09.544Z,1011.83
2023-05-05T10:18:09.593Z,1011.81
2023-05-05T10:19:09.545Z,1011.78
2023-05-05T10:20:09.772Z,1011.79
2023-05-05T10:21:09.543Z,1011.76
2023-05-05T10:22:09.542Z,1011.77
2023-05-05T10:23:09.559Z,1011.77
2023-05-05T10:24:09.543Z,1011.78
2023-05-05T10:25:09.546Z,1011.78
2023-05-05T10:26:09.539Z,1011.78
2023-05-05T10:27:11.570Z,1011.77
2023-05-05T10:28:09.558Z,1011.76
2023-05-05T10:29:09.542Z,1011.75
2023-05-05T10:30:09.835Z,1011.71
2023-05-05T10:31:23.827Z,1011.67
2023-05-05T10:32:33.554Z,1011.65
2023-05-05T10:34:09.635Z,1011.61
2023-05-05T10:35:09.556Z,1011.59
2023-05-05T10:36:09.641Z,1011.58
2023-05-05T10:37:09.549Z,1011.62
2023-05-05T10:38:09.563Z,1011.58
2023-05-05T10:39:09.565Z,1011.58
2023-05-05T10:40:09.805Z,1011.59
2023-05-05T10:41:09.547Z,1011.55
2023-05-05T10:42:09.549Z,1011.52
2023-05-05T10:43:09.553Z,1011.55
2023-05-05T10:44:09.558Z,1011.54
2023-05-05T10:45:09.635Z,1011.58
2023-05-05T10:46:09.640Z,1011.56
2023-05-05T10:47:09.548Z,1011.56
2023-05-05T10:48:09.708Z,1011.55
2023-05-05T10:49:11.621Z,1011.54
2023-05-05T10:50:09.815Z,1011.58
2023-05-05T10:51:09.549Z,1011.55
2023-05-05T10:52:09.568Z,1011.55
2023-05-05T10:53:09.563Z,1011.60
2023-05-05T10:54:09.731Z,1011.56
2023-05-05T10:55:09.545Z,1011.58
2023-05-05T10:56:09.546Z,1011.58
2023-05-05T10:57:09.547Z,1011.56
2023-05-05T10:58:09.543Z,1011.56
2023-05-05T10:59:09.547Z,1011.50
2023-05-05T11:00:09.751Z,1011.50
2023-05-05T11:01:09.579Z,1011.48
2023-05-05T11:02:09.545Z,1011.51
2023-05-05T11:03:09.646Z,1011.47
2023-05-05T11:04:09.598Z,1011.47
2023-05-05T11:05:09.584Z,1011.43
2023-05-05T11:06:09.543Z,1011.43
2023-05-05T11:07:12.690Z,1011.46
2023-05-05T11:08:09.669Z,1011.45
2023-05-05T11:09:09.540Z,1011.44
2023-05-05T11:10:09.963Z,1011.45
2023-05-05T11:11:09.540Z,1011.45
2023-05-05T11:12:09.539Z,1011.41
2023-05-05T11:13:09.558Z,1011.45
2023-05-05T11:14:09.537Z,1011.46
2023-05-05T11:15:09.539Z,1011.47
2023-05-05T11:16:09.554Z,1011.45
2023-05-05T11:17:09.544Z,1011.46
2023-05-05T11:18:09.566Z,1011.46
2023-05-05T11:19:09.616Z,1011.48
2023-05-05T11:20:09.735Z,1011.49
2023-05-05T11:21:09.552Z,1011.50
2023-05-05T11:22:09.543Z,1011.47
2023-05-05T11:23:09.537Z,1011.48
2023-05-05T11:24:09.562Z,1011.51
2023-05-05T11:25:09.536Z,1011.46
2023-05-05T11:26:09.540Z,1011.47
2023-05-05T11:27:09.530Z,1011.53
2023-05-05T11:28:09.538Z,1011.53
2023-05-05T11:29:09.536Z,1011.59
2023-05-05T11:30:09.917Z,1011.68
2023-05-05T11:31:09.556Z,1011.66
2023-05-05T11:32:09.939Z,1011.73
2023-05-05T11:33:09.542Z,1011.72
2023-05-05T11:34:09.533Z,1011.80
2023-05-05T11:35:09.530Z,1011.79
2023-05-05T11:36:09.551Z,1011.80
2023-05-05T11:37:09.534Z,1011.80
2023-05-05T11:38:09.532Z,1011.80
2023-05-05T11:39:09.527Z,1011.77
2023-05-05T11:40:09.777Z,1011.81
2023-05-05T11:41:09.527Z,1011.79
2023-05-05T11:42:11.024Z,1011.78
2023-05-05T11:43:09.527Z,1011.76
2023-05-05T11:44:09.537Z,1011.71
2023-05-05T11:45:09.525Z,1011.73
2023-05-05T11:46:09.571Z,1011.71
2023-05-05T11:47:09.526Z,1011.68
2023-05-05T11:48:09.558Z,1011.67
2023-05-05T11:49:09.523Z,1011.62
2023-05-05T11:50:09.735Z,1011.56
2023-05-05T11:51:09.522Z,1011.49
2023-05-05T11:52:09.544Z,1011.47
2023-05-05T11:53:09.521Z,1011.49
2023-05-05T11:54:09.523Z,1011.47
2023-05-05T11:55:09.521Z,1011.52
2023-05-05T11:56:09.542Z,1011.53
2023-05-05T11:57:09.531Z,1011.54
2023-05-05T11:58:09.522Z,1011.57
2023-05-05T11:59:09.557Z,1011.67
2023-05-05T12:00:09.740Z,1011.68
2023-05-05T12:01:09.554Z,1011.69
2023-05-05T12:02:09.525Z,1011.73
2023-05-05T12:03:09.573Z,1011.76
2023-05-05T12:04:09.735Z,1011.77
2023-05-05T12:05:09.519Z,1011.78
2023-05-05T12:06:09.518Z,1011.75